Time;durP1;ratioP1;P1;durP2;ratioP2;P2;SDS_P1;SDS_P2;PMS_P1;PMS_P2;Temp;Humidity;BMP_temperature;BMP_pressure;BME280_temperature;BME280_humidity;BME280_pressure;Samples;Min_cycle;Max_cycle;Signal;HPM_P1;HPM_P2
2021/01/03 00:01:03;;;;;;;123.15;67.80;;;;;;;3.29;70.13;98901.89;252043;1134;115060;-76
2021/01/03 00:06:08;;;;;;;;;;;;;;;3.27;69.74;98882.70;251938;1132;115030;-75
2021/01/03 00:11:11;;;;;;;120.50;61.80;;;;;;;3.22;70.34;98874.95;251994;1132;102453;-76
2021/01/03 00:16:13;;;;;;;112.87;60.87;;;;;;;3.21;70.05;98878.50;251853;1132;115703;-76
2021/01/03 00:21:15;;;;;;;120.60;64.63;;;;;;;3.21;70.31;98875.02;251823;1132;115039;-76
2021/01/03 00:26:18;;;;;;;117.15;61.55;;;;;;;3.22;70.01;98876.72;251512;1132;115094;-76
2021/01/03 00:31:23;;;;;;;121.37;62.90;;;;;;;3.19;69.66;98874.20;251853;1133;115433;-75
2021/01/03 00:36:27;;;;;;;114.83;57.83;;;;;;;3.23;70.24;98876.69;251615;1134;115179;-76
2021/01/03 00:41:30;;;;;;;115.47;58.47;;;;;;;3.29;70.57;98886.11;251977;1132;115542;-72
2021/01/03 00:46:34;;;;;;;107.47;56.10;;;;;;;3.35;70.24;98879.79;251843;1134;115185;-75
2021/01/03 00:51:36;;;;;;;105.90;57.10;;;;;;;3.34;70.33;98894.72;251821;1132;115482;-76
2021/01/03 00:56:39;;;;;;;101.03;53.53;;;;;;;3.32;70.54;98902.64;251867;1134;115312;-75
2021/01/03 01:01:42;;;;;;;98.27;52.57;;;;;;;3.29;69.91;98887.00;251398;1132;115368;-76
2021/01/03 01:06:44;;;;;;;105.27;54.60;;;;;;;3.23;69.82;98881.95;251416;1132;115020;-74
2021/01/03 01:11:47;;;;;;;101.60;53.07;;;;;;;3.15;70.12;98873.45;251456;1134;114951;-74
2021/01/03 01:16:50;;;;;;;106.07;54.38;;;;;;;3.10;70.16;98872.77;251860;1134;115261;-74
2021/01/03 01:21:53;;;;;;;105.97;53.57;;;;;;;3.10;69.91;98861.39;251902;1132;115318;-74
2021/01/03 01:26:56;;;;;;;94.40;50.10;;;;;;;3.11;70.16;98856.07;251899;1132;115273;-75
2021/01/03 01:31:58;;;;;;;93.63;51.00;;;;;;;3.14;70.14;98831.45;251731;1132;115586;-75
2021/01/03 01:37:02;;;;;;;93.57;47.97;;;;;;;3.17;70.22;98826.94;251955;1132;115450;-75
2021/01/03 01:42:04;;;;;;;82.47;42.00;;;;;;;3.22;69.99;98818.88;251889;1133;115420;-75
2021/01/03 01:47:24;;;;;;;84.30;42.40;;;;;;;3.26;70.19;98808.21;252042;1132;114901;-75
2021/01/03 01:52:33;;;;;;;88.23;44.03;;;;;;;3.25;70.15;98822.25;252179;1132;115358;-75
2021/01/03 01:57:56;;;;;;;82.20;44.27;;;;;;;3.24;70.22;98825.80;251881;1132;115101;-74
2021/01/03 02:03:04;;;;;;;81.67;44.37;;;;;;;3.31;70.50;98827.30;251758;1133;115113;-74
2021/01/03 02:08:16;;;;;;;99.17;49.67;;;;;;;3.31;70.32;98823.81;251973;1134;115003;-74
2021/01/03 02:13:28;;;;;;;100.10;51.88;;;;;;;3.33;70.17;98819.37;251994;1133;115274;-74
2021/01/03 02:18:32;;;;;;;97.35;51.25;;;;;;;3.32;70.28;98807.11;251480;1134;115529;-74
2021/01/03 02:24:12;;;;;;;98.33;51.53;;;;;;;3.28;69.89;98809.00;251996;1134;117022;-75
2021/01/03 02:29:18;;;;;;;94.30;48.70;;;;;;;3.21;69.87;98809.28;252065;1132;115256;-74
2021/01/03 02:34:37;;;;;;;88.07;47.70;;;;;;;3.16;70.07;98809.45;251983;1132;114742;-75
2021/01/03 02:40:03;;;;;;;93.90;47.57;;;;;;;3.13;69.85;98798.19;252054;1131;115201;-75
2021/01/03 02:45:21;;;;;;;90.40;47.63;;;;;;;3.04;69.68;98787.08;251857;1133;115039;-75
2021/01/03 02:50:25;;;;;;;92.83;48.27;;;;;;;2.95;69.87;98797.91;251877;1134;114743;-74
2021/01/03 02:55:28;;;;;;;93.47;48.43;;;;;;;2.94;69.96;98801.45;251851;1131;114924;-75
2021/01/03 03:00:38;;;;;;;90.38;47.08;;;;;;;2.98;69.89;98787.28;251827;1134;115354;-75
2021/01/03 03:05:41;;;;;;;89.10;49.17;;;;;;;3.03;69.80;98782.73;251998;1133;115165;-75
2021/01/03 03:10:44;;;;;;;83.43;46.10;;;;;;;3.03;69.64;98782.73;251861;1132;116006;-74
2021/01/03 03:15:46;;;;;;;84.13;45.77;;;;;;;3.02;69.59;98781.03;252049;1132;114589;-74
2021/01/03 03:20:49;;;;;;;85.13;45.00;;;;;;;3.02;69.92;98774.89;251777;1134;115199;-75
2021/01/03 03:25:52;;;;;;;85.40;46.75;;;;;;;2.98;70.07;98758.37;252023;1132;115175;-75
2021/01/03 03:30:54;;;;;;;79.77;44.57;;;;;;;2.95;69.90;98737.45;249983;1134;114933;-75
2021/01/03 03:35:57;;;;;;;93.10;45.53;;;;;;;2.89;70.04;98750.84;251833;1132;114965;-76
2021/01/03 03:41:00;;;;;;;87.87;45.60;;;;;;;2.88;69.29;98751.73;250518;1132;114856;-75
2021/01/03 03:46:02;;;;;;;90.97;47.10;;;;;;;2.86;70.09;98740.43;251347;1134;114797;-76
2021/01/03 03:51:05;;;;;;;85.65;43.98;;;;;;;2.87;70.50;98729.00;251868;1132;115313;-76
2021/01/03 03:56:10;;;;;;;79.23;40.80;;;;;;;2.95;70.07;98713.80;251781;1132;115199;-75
2021/01/03 04:01:12;;;;;;;70.10;36.45;;;;;;;3.04;70.63;98679.30;251154;1133;114959;-75
2021/01/03 04:06:15;;;;;;;64.20;32.80;;;;;;;3.14;70.36;98673.70;251672;1132;115194;-75
2021/01/03 04:11:17;;;;;;;56.13;30.23;;;;;;;3.20;70.75;98674.33;251699;1132;114812;-75
2021/01/03 04:16:19;;;;;;;55.90;30.30;;;;;;;3.25;70.53;98703.06;251800;1134;115428;-74
2021/01/03 04:21:21;;;;;;;58.07;30.10;;;;;;;3.28;70.39;98708.22;251754;1132;114906;-76
2021/01/03 04:26:28;;;;;;;52.93;28.97;;;;;;;3.28;70.33;98705.59;251601;1135;116426;-77
2021/01/03 04:31:31;;;;;;;47.40;25.60;;;;;;;3.31;70.31;98729.99;251911;1133;115527;-76
2021/01/03 04:36:34;;;;;;;56.40;29.43;;;;;;;3.30;70.29;98712.51;251692;1132;114932;-76
2021/01/03 04:41:40;;;;;;;52.03;27.40;;;;;;;3.35;69.93;98685.17;252216;1132;115675;-76
2021/01/03 04:46:43;;;;;;;52.43;28.60;;;;;;;3.35;69.83;98690.43;252059;1132;116111;-77
2021/01/03 04:52:00;;;;;;;48.43;26.77;;;;;;;3.32;69.80;98700.14;251916;1132;114917;-77
2021/01/03 04:57:09;;;;;;;50.73;26.80;;;;;;;3.31;70.09;98715.99;252022;1133;115187;-77
2021/01/03 05:02:33;;;;;;;49.47;25.67;;;;;;;3.26;70.05;98692.51;251299;1132;115237;-76
2021/01/03 05:07:41;;;;;;;51.53;28.50;;;;;;;3.15;69.53;98678.89;252080;1132;115052;-76
2021/01/03 05:12:50;;;;;;;45.23;26.80;;;;;;;3.05;69.63;98694.14;251980;1132;115018;-77
2021/01/03 05:17:54;;;;;;;49.43;27.00;;;;;;;3.00;70.53;98698.73;251919;1132;115101;-77
2021/01/03 05:23:16;;;;;;;49.73;26.87;;;;;;;2.99;69.65;98701.40;251739;1134;115153;-77
2021/01/03 05:28:23;;;;;;;50.80;25.93;;;;;;;2.99;70.06;98697.03;251727;1132;114979;-77
2021/01/03 05:33:28;;;;;;;44.88;24.32;;;;;;;3.05;70.09;98680.16;251634;1132;115681;-77
2021/01/03 05:38:39;;;;;;;43.58;24.12;;;;;;;3.10;69.81;98672.11;251535;1133;115525;-77
2021/01/03 05:43:42;;;;;;;47.40;25.67;;;;;;;3.13;70.44;98674.63;251783;1133;115003;-77
2021/01/03 05:49:04;;;;;;;43.77;22.60;;;;;;;3.16;69.57;98693.77;251654;1132;115020;-76
2021/01/03 05:54:11;;;;;;;46.47;24.63;;;;;;;3.18;69.65;98702.44;251831;1131;114992;-77
2021/01/03 05:59:28;;;;;;;46.63;26.17;;;;;;;3.24;70.21;98691.70;251429;1133;115004;-77
2021/01/03 06:04:30;;;;;;;47.03;27.80;;;;;;;3.19;69.63;98682.26;251653;1134;114969;-77
2021/01/03 06:09:42;;;;;;;54.97;29.33;;;;;;;3.07;69.41;98692.33;251856;1132;114863;-78
2021/01/03 06:14:46;;;;;;;55.17;29.03;;;;;;;2.99;69.44;98693.52;251903;1132;115945;-77
2021/01/03 06:19:53;;;;;;;52.78;27.40;;;;;;;2.95;69.60;98692.77;251673;1134;114876;-76
2021/01/03 06:24:58;;;;;;;47.53;26.17;;;;;;;2.93;69.77;98707.76;251940;1132;115139;-77
2021/01/03 06:30:08;;;;;;;50.92;25.72;;;;;;;2.90;69.77;98689.47;251753;1131;116235;-77
2021/01/03 06:35:35;;;;;;;47.17;25.13;;;;;;;2.88;69.70;98698.31;251530;1135;115299;-77
2021/01/03 06:40:44;;;;;;;48.20;26.27;;;;;;;2.85;69.72;98715.05;251801;1132;115080;-77
2021/01/03 06:46:14;;;;;;;51.60;25.47;;;;;;;2.83;70.01;98685.36;251613;1135;115392;-77
2021/01/03 06:51:33;;;;;;;46.85;25.92;;;;;;;2.87;70.09;98657.20;252020;1132;115041;-77
2021/01/03 06:56:54;;;;;;;42.83;24.40;;;;;;;2.96;70.14;98667.37;251895;1132;114869;-77
2021/01/03 07:01:57;;;;;;;46.30;25.40;;;;;;;3.03;70.04;98660.97;251497;1132;115559;-77
2021/01/03 07:07:02;;;;;;;42.70;25.07;;;;;;;3.06;70.47;98668.75;251718;1132;115067;-76
2021/01/03 07:12:31;;;;;;;48.50;25.23;;;;;;;3.16;70.30;98661.34;251821;1132;115193;-78
2021/01/03 07:18:18;;;;;;;55.00;29.20;;;;;;;3.20;70.13;98681.36;251943;1132;114935;-77
2021/01/03 07:23:36;;;;;;;53.37;28.47;;;;;;;3.18;69.61;98672.67;251615;1132;115349;-78
2021/01/03 07:28:39;;;;;;;55.73;30.03;;;;;;;3.10;69.55;98672.97;252101;1132;114949;-77
2021/01/03 07:34:02;;;;;;;51.27;27.87;;;;;;;3.06;69.62;98666.12;251935;1132;114609;-77
2021/01/03 07:39:07;;;;;;;43.97;23.83;;;;;;;3.06;70.05;98666.97;251808;1133;115043;-77
2021/01/03 07:44:33;;;;;;;45.27;23.73;;;;;;;3.11;70.22;98655.41;252054;1132;115473;-76
2021/01/03 07:49:42;;;;;;;42.40;21.87;;;;;;;3.22;70.46;98654.08;251798;1132;115309;-76
2021/01/03 07:54:49;;;;;;;41.87;22.27;;;;;;;3.34;70.03;98658.02;251833;1133;115113;-77
2021/01/03 07:59:57;;;;;;;42.57;22.63;;;;;;;3.45;69.82;98668.12;251945;1132;114830;-77
2021/01/03 08:05:01;;;;;;;43.87;23.97;;;;;;;3.53;70.02;98666.03;251632;1134;115036;-76
2021/01/03 08:10:11;;;;;;;44.25;22.37;;;;;;;3.54;69.82;98668.62;251871;1134;115008;-76
2021/01/03 08:15:25;;;;;;;43.17;23.67;;;;;;;3.59;69.58;98692.10;252065;1135;114918;-76
2021/01/03 08:20:28;;;;;;;42.13;23.97;;;;;;;3.63;69.90;98700.73;251867;1132;114937;-78
2021/01/03 08:25:30;;;;;;;48.83;25.00;;;;;;;3.71;69.67;98717.09;251896;1132;115276;-77
2021/01/03 08:30:36;;;;;;;41.80;23.13;;;;;;;3.73;69.66;98716.09;251867;1133;114885;-77
2021/01/03 08:35:38;;;;;;;48.17;24.90;;;;;;;3.70;69.71;98720.62;252074;1132;114855;-78
2021/01/03 08:40:43;;;;;;;53.00;26.70;;;;;;;3.71;69.88;98712.68;251959;1132;114915;-76
2021/01/03 08:45:49;;;;;;;40.45;22.75;;;;;;;3.80;69.65;98706.17;251929;1133;114727;-76
2021/01/03 08:51:07;;;;;;;39.30;22.57;;;;;;;3.92;70.47;98702.21;251831;1134;115116;-77
2021/01/03 08:56:09;;;;;;;39.63;21.77;;;;;;;4.00;70.19;98694.84;251171;1132;114837;-76
2021/01/03 09:01:29;;;;;;;37.03;21.73;;;;;;;4.09;69.85;98696.26;251576;1133;114922;-76
2021/01/03 09:06:34;;;;;;;36.63;21.53;;;;;;;4.16;69.70;98717.00;251769;1133;114877;-76
2021/01/03 09:11:48;;;;;;;38.13;21.65;;;;;;;4.26;70.28;98715.70;251873;1132;115357;-78
2021/01/03 09:16:56;;;;;;;41.13;23.03;;;;;;;4.34;69.62;98712.73;251824;1135;115328;-75
2021/01/03 09:22:01;;;;;;;45.17;23.23;;;;;;;4.34;69.78;98711.88;252002;1132;115052;-76
2021/01/03 09:27:05;;;;;;;41.10;23.10;;;;;;;4.35;69.47;98700.42;251860;1132;114923;-76
2021/01/03 09:32:23;;;;;;;39.05;22.20;;;;;;;4.37;69.65;98702.07;251724;1134;114897;-77
2021/01/03 09:37:30;;;;;;;40.47;22.90;;;;;;;4.35;69.26;98708.32;252139;1133;115945;-75
2021/01/03 09:42:47;;;;;;;46.60;26.10;;;;;;;4.37;69.22;98694.17;251687;1133;114967;-77
2021/01/03 09:47:50;;;;;;;42.90;25.27;;;;;;;4.46;69.50;98711.38;251765;1132;115411;-77
2021/01/03 09:52:56;;;;;;;50.78;27.05;;;;;;;4.55;69.87;98700.42;252097;1132;115351;-78
2021/01/03 09:58:07;;;;;;;48.97;26.87;;;;;;;4.65;69.63;98704.41;251977;1132;114870;-80
2021/01/03 10:03:34;;;;;;;49.50;27.50;;;;;;;4.73;69.49;98702.28;251855;1133;114868;-79
2021/01/03 10:08:38;;;;;;;48.43;27.47;;;;;;;4.78;69.26;98702.06;251975;1132;115303;-78
2021/01/03 10:13:54;;;;;;;47.03;26.80;;;;;;;4.83;69.74;98693.98;252015;1133;115640;-78
2021/01/03 10:18:57;;;;;;;50.35;28.47;;;;;;;4.84;69.05;98693.89;251660;1134;115099;-80
2021/01/03 10:24:02;;;;;;;46.20;27.27;;;;;;;4.89;69.69;98685.77;251920;1133;115130;-83
2021/01/03 10:29:05;;;;;;;45.63;26.60;;;;;;;4.93;68.54;98679.45;251721;1133;115220;-80
2021/01/03 10:34:09;;;;;;;46.53;28.13;;;;;;;4.96;68.27;98685.45;251885;1133;114895;-74
2021/01/03 10:39:13;;;;;;;52.90;28.70;;;;;;;5.00;69.06;98686.16;251898;1134;115106;-73
2021/01/03 10:44:20;;;;;;;51.30;28.85;;;;;;;5.04;68.74;98678.97;252038;1132;114991;-86
2021/01/03 10:49:23;;;;;;;48.20;28.70;;;;;;;5.09;68.38;98675.17;251825;1135;114923;-80
2021/01/03 10:54:27;;;;;;;52.77;31.57;;;;;;;5.17;68.52;98672.21;251886;1134;115138;-80
2021/01/03 10:59:41;;;;;;;54.27;32.33;;;;;;;5.21;68.94;98669.35;251625;1134;115193;-76
2021/01/03 11:04:43;;;;;;;53.50;30.80;;;;;;;5.27;68.96;98655.03;251749;1132;115237;-78
2021/01/03 11:09:46;;;;;;;57.08;30.90;;;;;;;5.28;68.39;98651.45;251704;1134;115158;-78
2021/01/03 11:14:49;;;;;;;57.97;32.70;;;;;;;5.29;68.94;98655.80;251999;1132;114897;-77
2021/01/03 11:19:51;;;;;;;51.33;30.60;;;;;;;5.29;67.62;98645.24;251909;1134;115131;-78
2021/01/03 11:24:53;;;;;;;49.80;30.17;;;;;;;5.31;68.75;98638.13;251864;1133;115036;-76
2021/01/03 11:29:57;;;;;;;50.52;29.42;;;;;;;5.31;68.11;98624.08;252010;1135;115071;-77
2021/01/03 11:35:00;;;;;;;53.13;29.80;;;;;;;5.31;67.91;98634.63;250219;1132;115601;-76
2021/01/03 11:40:04;;;;;;;59.37;30.97;;;;;;;5.28;68.29;98640.91;252006;1134;114773;-76
2021/01/03 11:45:14;;;;;;;57.63;31.37;;;;;;;5.24;68.33;98628.80;250622;1133;115582;-72
2021/01/03 11:50:20;;;;;;;59.70;32.53;;;;;;;5.21;68.17;98648.25;251868;1132;114924;-73
2021/01/03 11:55:22;;;;;;;55.90;32.25;;;;;;;5.26;68.69;98644.53;251562;1133;115014;-74
2021/01/03 12:00:24;;;;;;;60.30;33.05;;;;;;;5.31;67.51;98632.84;251732;1133;115416;-72
2021/01/03 12:05:27;;;;;;;58.67;32.87;;;;;;;5.40;68.47;98640.34;250696;1134;115510;-72
2021/01/03 12:10:29;;;;;;;61.97;33.87;;;;;;;5.44;67.82;98656.88;252051;1134;114955;-74
2021/01/03 12:15:32;;;;;;;57.30;32.07;;;;;;;5.48;67.62;98639.11;251938;1132;114871;-74
2021/01/03 12:20:35;;;;;;;62.03;33.17;;;;;;;5.49;67.54;98630.26;251711;1132;115453;-73
2021/01/03 12:25:38;;;;;;;56.30;32.48;;;;;;;5.48;68.37;98644.39;252111;1134;115798;-75
2021/01/03 12:30:40;;;;;;;58.97;32.97;;;;;;;5.45;68.11;98651.52;251931;1135;114486;-74
2021/01/03 12:35:43;;;;;;;54.90;30.73;;;;;;;5.48;68.39;98645.24;251729;1132;115334;-73
2021/01/03 12:40:45;;;;;;;54.77;31.03;;;;;;;5.49;67.67;98639.02;250335;1132;115118;-73
2021/01/03 12:45:48;;;;;;;56.53;30.80;;;;;;;5.49;67.71;98636.39;252097;1132;114901;-74
2021/01/03 12:50:50;;;;;;;56.43;30.83;;;;;;;5.52;67.77;98632.75;251965;1132;115433;-74
2021/01/03 12:55:52;;;;;;;56.53;30.33;;;;;;;5.55;67.93;98641.38;248475;1132;114996;-76
2021/01/03 13:00:54;;;;;;;53.83;28.23;;;;;;;5.63;68.42;98636.57;252003;1135;115081;-72
2021/01/03 13:05:57;;;;;;;56.80;30.40;;;;;;;5.73;67.77;98615.02;251993;1132;115122;-74
2021/01/03 13:11:00;;;;;;;56.80;29.57;;;;;;;5.81;68.35;98611.08;252012;1132;115415;-72
2021/01/03 13:16:02;;;;;;;48.50;27.42;;;;;;;5.89;68.47;98622.09;251847;1133;114975;-74
2021/01/03 13:21:07;;;;;;;52.20;28.07;;;;;;;5.92;68.04;98606.14;251984;1132;115072;-75
2021/01/03 13:26:11;;;;;;;51.70;28.50;;;;;;;6.72;69.53;98606.44;251987;1132;114897;-73
2021/01/03 13:31:20;;;;;;;57.70;29.75;;;;;;;6.70;68.27;98606.53;251954;1132;115293;-73
2021/01/03 13:36:27;;;;;;;51.73;30.53;;;;;;;6.55;66.74;98608.18;251561;1132;116041;-76
2021/01/03 13:41:29;;;;;;;55.85;30.00;;;;;;;6.38;66.22;98614.34;250990;1134;115449;-75
2021/01/03 13:46:32;;;;;;;51.00;30.17;;;;;;;6.22;67.05;98616.09;251212;1133;114865;-74
2021/01/03 13:51:35;;;;;;;56.17;30.50;;;;;;;6.13;67.43;98624.48;251873;1133;116126;-74
2021/01/03 13:56:38;;;;;;;51.90;28.53;;;;;;;6.13;67.14;98616.55;251864;1134;115407;-76
2021/01/03 14:01:41;;;;;;;56.17;28.60;;;;;;;6.15;67.49;98615.55;251719;1132;115095;-76
2021/01/03 14:06:43;;;;;;;58.42;31.07;;;;;;;6.14;66.43;98610.33;251784;1132;114956;-74
2021/01/03 14:11:46;;;;;;;51.90;29.97;;;;;;;6.11;66.47;98607.84;251877;1133;114850;-74
2021/01/03 14:16:59;;;;;;;56.60;29.27;;;;;;;6.12;66.76;98593.72;252011;1135;115304;-75
2021/01/03 14:22:02;;;;;;;55.23;30.10;;;;;;;6.20;66.66;98599.45;251911;1132;115219;-75
2021/01/03 14:27:08;;;;;;;50.80;29.60;;;;;;;6.31;67.02;98598.89;251929;1134;115205;-75
2021/01/03 14:32:13;;;;;;;49.58;27.65;;;;;;;6.37;67.05;98595.94;251857;1135;115605;-74
2021/01/03 14:37:29;;;;;;;50.70;26.67;;;;;;;6.38;66.33;98610.85;252007;1133;115069;-73
2021/01/03 14:42:39;;;;;;;51.50;26.67;;;;;;;6.37;66.46;98625.86;251865;1134;116300;-78
2021/01/03 14:48:00;;;;;;;50.77;27.40;;;;;;;6.34;66.53;98615.45;251926;1132;114884;-76
2021/01/03 14:53:16;;;;;;;50.40;28.63;;;;;;;6.26;66.92;98617.64;251972;1134;114958;-77
2021/01/03 14:58:26;;;;;;;54.10;28.00;;;;;;;6.19;65.78;98618.04;251778;1132;115110;-77
2021/01/03 15:04:11;;;;;;;53.40;28.70;;;;;;;6.11;66.62;98629.86;251576;1132;115202;-78
2021/01/03 15:09:13;;;;;;;51.53;28.33;;;;;;;6.02;65.94;98621.53;250324;1136;114889;-77
2021/01/03 15:14:15;;;;;;;52.23;27.90;;;;;;;5.92;66.52;98614.06;251798;1134;115007;-77
2021/01/03 15:19:26;;;;;;;52.00;29.27;;;;;;;5.83;66.45;98609.20;251750;1132;115065;-81
2021/01/03 15:24:30;;;;;;;54.23;29.40;;;;;;;5.76;66.62;98609.59;251842;1132;114965;-80
2021/01/03 15:29:36;;;;;;;56.10;29.33;;;;;;;5.66;65.79;98610.03;251650;1132;114859;-80
2021/01/03 15:35:00;;;;;;;53.80;30.03;;;;;;;5.59;66.81;98615.69;251658;1132;115611;-79
2021/01/03 15:40:09;;;;;;;61.13;32.53;;;;;;;5.56;66.57;98618.47;251585;1133;115246;-78
2021/01/03 15:45:30;;;;;;;59.20;32.20;;;;;;;5.57;66.79;98620.17;251616;1132;115096;-80
2021/01/03 15:50:33;;;;;;;63.08;32.63;;;;;;;5.59;66.83;98620.97;251696;1132;115312;-82
2021/01/03 15:55:36;;;;;;;62.93;32.30;;;;;;;5.60;66.94;98620.03;251571;1132;115228;-80
2021/01/03 16:00:38;;;;;;;64.87;32.07;;;;;;;5.57;66.98;98602.58;251811;1135;114504;-79
2021/01/03 16:05:41;;;;;;;56.23;30.77;;;;;;;5.56;66.63;98605.28;251849;1133;114795;-83
2021/01/03 16:10:43;;;;;;;60.10;31.03;;;;;;;5.53;65.89;98623.90;251800;1133;115106;-76
2021/01/03 16:15:47;;;;;;;57.62;30.95;;;;;;;5.49;65.45;98610.00;251756;1131;114996;-76
2021/01/03 16:20:49;;;;;;;62.13;32.87;;;;;;;5.42;66.48;98593.60;251926;1134;115188;-76
2021/01/03 16:25:58;;;;;;;67.43;35.73;;;;;;;5.33;65.80;98580.88;251817;1132;115023;-80
2021/01/03 16:31:29;;;;;;;66.80;34.80;;;;;;;5.27;65.82;98573.25;252033;1134;115702;-76
2021/01/03 16:36:51;;;;;;;62.37;33.27;;;;;;;5.22;66.60;98585.78;251781;1133;114649;-78
2021/01/03 16:41:56;;;;;;;63.80;31.80;;;;;;;5.19;65.96;98584.14;250416;1134;115503;-78
2021/01/03 16:47:26;;;;;;;59.73;31.57;;;;;;;5.18;67.03;98600.05;250426;1135;115755;-77
2021/01/03 16:52:39;;;;;;;60.97;30.47;;;;;;;5.18;66.25;98610.61;251731;1133;115040;-81
2021/01/03 16:58:13;;;;;;;62.00;31.47;;;;;;;5.25;66.34;98584.80;251689;1132;115016;-79
2021/01/03 17:03:31;;;;;;;60.23;30.37;;;;;;;5.29;67.07;98597.75;251740;1136;115052;-81
2021/01/03 17:09:00;;;;;;;59.80;29.72;;;;;;;5.33;66.88;98593.19;251699;1134;115207;-80
2021/01/03 17:14:21;;;;;;;58.37;29.60;;;;;;;5.36;66.83;98615.00;251366;1135;115219;-80
2021/01/03 17:19:42;;;;;;;54.37;28.77;;;;;;;5.36;66.27;98609.72;252051;1133;114774;-81
2021/01/03 17:25:13;;;;;;;51.50;25.77;;;;;;;5.36;66.57;98620.28;251935;1133;115347;-82
2021/01/03 17:30:29;;;;;;;47.57;23.93;;;;;;;5.37;66.94;98614.09;251753;1132;115063;-82
2021/01/03 17:36:01;;;;;;;47.00;23.92;;;;;;;5.38;66.93;98618.43;251744;1132;115106;-80
2021/01/03 17:41:12;;;;;;;49.43;23.93;;;;;;;5.36;66.98;98607.08;251277;1134;115135;-76
2021/01/03 17:46:18;;;;;;;49.93;24.47;;;;;;;5.37;66.10;98606.18;251845;1133;116335;-76
2021/01/03 17:51:20;;;;;;;49.67;26.33;;;;;;;5.39;67.07;98598.17;251900;1135;114960;-79
2021/01/03 17:56:23;;;;;;;50.87;26.60;;;;;;;5.41;67.32;98597.18;251825;1134;114835;-80
2021/01/03 18:07:56;;;;;;;45.03;23.43;;;;;;;5.37;66.88;98607.97;251950;1133;115401;-80
2021/01/03 18:12:58;;;;;;;54.63;28.13;;;;;;;5.37;66.88;98611.45;251854;1132;115168;-78
2021/01/03 18:18:01;;;;;;;52.97;26.80;;;;;;;5.43;66.58;98616.45;251734;1132;115108;-79
2021/01/03 18:23:03;;;;;;;58.43;28.93;;;;;;;5.52;67.32;98614.28;251705;1133;115570;-79
2021/01/03 18:28:07;;;;;;;58.02;29.90;;;;;;;5.58;67.24;98619.27;251643;1133;115431;-79
2021/01/03 18:33:11;;;;;;;54.88;28.77;;;;;;;5.62;66.39;98626.95;251890;1132;115103;-79
2021/01/03 18:38:15;;;;;;;56.30;29.13;;;;;;;5.64;67.14;98637.45;251671;1132;115240;-78
2021/01/03 18:43:18;;;;;;;56.20;28.87;;;;;;;5.65;66.23;98644.44;251757;1134;115087;-81
2021/01/03 18:48:21;;;;;;;57.33;29.33;;;;;;;5.64;67.00;98651.50;251815;1133;115354;-74
2021/01/03 18:53:23;;;;;;;56.30;26.73;;;;;;;5.62;67.45;98655.14;251943;1133;114996;-76
2021/01/03 18:58:26;;;;;;;56.73;28.80;;;;;;;5.62;67.56;98660.41;251969;1135;115080;-76
2021/01/03 19:03:28;;;;;;;58.47;28.97;;;;;;;5.62;66.37;98663.05;252044;1134;115083;-74
2021/01/03 19:08:30;;;;;;;53.90;28.83;;;;;;;5.61;67.03;98669.27;251923;1132;115065;-76
2021/01/03 19:13:33;;;;;;;60.37;32.27;;;;;;;5.58;66.80;98677.33;251963;1132;115119;-76
2021/01/03 19:18:35;;;;;;;72.90;39.70;;;;;;;5.52;66.15;98686.39;250335;1134;116076;-73
2021/01/03 19:23:37;;;;;;;77.20;40.37;;;;;;;5.47;66.33;98683.13;249987;1134;115149;-74
2021/01/03 19:28:39;;;;;;;77.23;40.17;;;;;;;5.48;67.50;98684.83;251943;1134;116686;-71
2021/01/03 19:33:42;;;;;;;79.30;40.50;;;;;;;5.50;66.84;98693.51;251850;1133;115263;-71
2021/01/03 19:38:44;;;;;;;77.00;38.77;;;;;;;5.52;66.77;98685.53;251639;1132;115425;-72
2021/01/03 19:43:48;;;;;;;75.32;38.15;;;;;;;5.51;66.10;98686.47;251908;1134;115070;-73
2021/01/03 19:48:51;;;;;;;67.23;36.43;;;;;;;5.48;66.85;98679.55;251860;1134;114987;-73
2021/01/03 19:53:55;;;;;;;68.97;35.23;;;;;;;5.49;67.29;98688.31;251984;1134;114936;-73
2021/01/03 19:58:57;;;;;;;65.40;35.40;;;;;;;5.46;66.16;98698.08;252048;1132;115143;-73
2021/01/03 20:03:59;;;;;;;65.97;35.63;;;;;;;5.42;67.34;98701.80;251937;1133;115655;-73
2021/01/03 20:09:04;;;;;;;63.10;34.63;;;;;;;5.42;66.72;98716.77;251786;1137;114974;-73
2021/01/03 20:14:08;;;;;;;64.77;33.98;;;;;;;5.37;67.30;98724.91;251956;1133;115330;-71
2021/01/03 20:19:18;;;;;;;70.28;36.08;;;;;;;5.33;67.26;98715.44;252058;1135;115098;-73
2021/01/03 20:24:22;;;;;;;66.57;34.43;;;;;;;5.31;66.53;98719.91;251935;1132;114930;-73
2021/01/03 20:29:26;;;;;;;69.55;36.30;;;;;;;5.30;66.95;98705.02;251632;1133;115028;-73
2021/01/03 20:34:30;;;;;;;66.72;35.55;;;;;;;5.30;66.77;98707.66;251859;1134;114992;-73
2021/01/03 20:39:34;;;;;;;76.90;37.47;;;;;;;5.36;67.38;98730.24;251456;1133;115229;-73
2021/01/03 20:44:43;;;;;;;71.20;34.47;;;;;;;5.39;67.80;98730.11;251703;1135;115097;-73
2021/01/03 20:49:46;;;;;;;65.62;34.88;;;;;;;5.43;67.95;98745.75;251866;1134;114986;-73
2021/01/03 20:54:49;;;;;;;63.90;33.60;;;;;;;5.43;67.29;98729.03;251813;1133;115132;-73
2021/01/03 20:59:53;;;;;;;63.65;34.83;;;;;;;5.42;67.52;98730.82;251660;1134;114874;-73
2021/01/03 21:04:56;;;;;;;61.87;33.07;;;;;;;5.41;67.45;98734.39;251571;1135;115225;-73
2021/01/03 21:10:01;;;;;;;64.70;33.23;;;;;;;5.41;67.29;98738.82;250398;1132;115171;-73
2021/01/03 21:15:07;;;;;;;67.60;33.10;;;;;;;5.37;66.44;98748.66;251257;1134;115034;-73
2021/01/03 21:20:12;;;;;;;61.60;31.60;;;;;;;5.35;67.52;98757.56;251971;1135;114917;-72
2021/01/03 21:25:18;;;;;;;67.13;33.77;;;;;;;5.28;66.96;98749.06;251686;1134;115308;-72
2021/01/03 21:30:38;;;;;;;59.70;32.27;;;;;;;5.22;67.32;98755.47;251561;1132;114951;-71
2021/01/03 21:35:46;;;;;;;67.13;34.47;;;;;;;5.21;68.03;98760.83;251270;1134;115120;-71
2021/01/03 21:41:12;;;;;;;66.77;34.67;;;;;;;5.22;66.72;98759.89;251772;1132;115486;-72
2021/01/03 21:46:20;;;;;;;72.33;37.83;;;;;;;5.24;67.60;98773.03;251690;1135;115389;-72
2021/01/03 21:51:42;;;;;;;70.60;39.78;;;;;;;5.26;67.53;98772.02;251624;1135;115042;-72
2021/01/03 21:56:53;;;;;;;70.70;37.50;;;;;;;5.27;68.18;98781.66;249629;1134;115017;-72
2021/01/03 22:02:30;;;;;;;73.63;40.30;;;;;;;5.21;67.56;98789.84;251719;1134;115752;-72
2021/01/03 22:07:54;;;;;;;77.90;38.00;;;;;;;5.15;67.50;98787.47;251646;1131;114884;-72
2021/01/03 22:13:15;;;;;;;64.83;33.73;;;;;;;5.18;67.22;98795.25;251332;1134;115018;-72
2021/01/03 22:18:31;;;;;;;69.40;36.38;;;;;;;5.17;67.79;98802.31;251797;1132;114867;-72
2021/01/03 22:23:58;;;;;;;70.17;37.03;;;;;;;5.10;67.42;98800.02;251511;1135;115233;-72
2021/01/03 22:29:26;;;;;;;66.90;36.17;;;;;;;5.10;67.69;98795.59;250537;1134;115186;-72
2021/01/03 22:34:55;;;;;;;65.47;34.77;;;;;;;5.07;67.56;98794.88;251604;1135;114864;-71
2021/01/03 22:40:10;;;;;;;71.30;34.40;;;;;;;5.09;68.13;98806.20;251823;1133;115186;-72
2021/01/03 22:45:23;;;;;;;65.92;34.98;;;;;;;5.17;67.35;98812.02;251573;1133;114913;-70
2021/01/03 22:50:44;;;;;;;69.23;35.67;;;;;;;5.23;68.10;98798.56;251920;1132;115344;-71
2021/01/03 22:56:18;;;;;;;59.33;33.23;;;;;;;5.29;67.72;98807.96;251603;1133;115080;-71
2021/01/03 23:01:26;;;;;;;76.30;39.67;;;;;;;5.30;67.90;98810.55;251574;1134;115197;-69
2021/01/03 23:06:48;;;;;;;86.43;44.87;;;;;;;5.28;67.88;98801.83;251912;1134;116020;-71
2021/01/03 23:12:09;;;;;;;69.10;37.95;;;;;;;5.23;67.59;98790.64;251735;1132;115438;-71
2021/01/03 23:18:12;;;;;;;70.43;37.50;;;;;;;5.22;67.53;98794.19;251293;1134;116091;-70
2021/01/03 23:23:18;;;;;;;70.53;38.33;;;;;;;5.21;67.55;98787.20;250191;1135;115773;-70
2021/01/03 23:28:25;;;;;;;74.40;39.77;;;;;;;5.20;67.83;98788.14;251590;1133;115176;-70